Time;durP1;ratioP1;P1;durP2;ratioP2;P2;SDS_P1;SDS_P2;PMS_P1;PMS_P2;Temp;Humidity;BMP_temperature;BMP_pressure;BME280_temperature;BME280_humidity;BME280_pressure;Samples;Min_cycle;Max_cycle;Signal;HPM_P1;HPM_P2
2021/11/10 00:01:45;;;;;;;11.52;8.95;;;3.50;99.90;;;;;;5086367;28;20196;-48
2021/11/10 00:04:11;;;;;;;11.18;8.60;;;3.80;99.90;;;;;;5077724;28;20286;-48
2021/11/10 00:06:37;;;;;;;12.05;9.63;;;3.60;99.90;;;;;;5069487;28;20192;-48
2021/11/10 00:09:05;;;;;;;13.20;9.67;;;3.50;99.90;;;;;;5067767;28;20216;-48
2021/11/10 00:11:32;;;;;;;10.27;9.18;;;3.60;99.90;;;;;;5082367;28;20451;-49
2021/11/10 00:13:58;;;;;;;12.18;8.55;;;3.00;99.90;;;;;;5086799;28;20210;-48
2021/11/10 00:16:24;;;;;;;12.70;8.90;;;3.40;99.90;;;;;;5071192;28;20192;-49
2021/11/10 00:18:51;;;;;;;10.38;9.38;;;3.70;99.90;;;;;;5079108;28;20446;-49
2021/11/10 00:21:19;;;;;;;13.52;9.05;;;3.80;99.90;;;;;;5092489;28;20212;-49
2021/11/10 00:23:45;;;;;;;11.30;8.80;;;3.70;99.90;;;;;;5084252;28;20180;-49
2021/11/10 00:26:11;;;;;;;9.48;8.48;;;3.80;99.90;;;;;;5087606;28;20740;-46
2021/11/10 00:28:37;;;;;;;10.97;8.73;;;3.50;99.90;;;;;;5091136;28;20228;-46
2021/11/10 00:31:03;;;;;;;14.30;9.90;;;3.80;99.90;;;;;;5092842;28;20488;-46
2021/11/10 00:33:28;;;;;;;10.83;9.13;;;3.70;99.90;;;;;;5089606;28;20267;-46
2021/11/10 00:35:54;;;;;;;10.60;8.30;;;3.30;99.90;;;;;;5086436;28;20466;-46
2021/11/10 00:38:20;;;;;;;15.60;9.03;;;3.50;99.90;;;;;;5091769;28;20195;-46
2021/11/10 00:40:46;;;;;;;9.77;8.37;;;3.70;99.90;;;;;;5094502;28;20622;-46
2021/11/10 00:43:11;;;;;;;11.20;9.20;;;4.20;99.90;;;;;;5082688;28;20434;-46
2021/11/10 00:45:37;;;;;;;13.10;9.50;;;3.60;99.90;;;;;;5093591;28;20184;-46
2021/11/10 00:48:04;;;;;;;11.23;9.27;;;3.70;99.90;;;;;;5090138;28;20618;-46
2021/11/10 00:50:31;;;;;;;10.35;9.35;;;3.40;99.90;;;;;;5084523;28;20542;-46
2021/11/10 00:52:57;;;;;;;10.65;9.00;;;3.70;99.90;;;;;;5089137;28;20538;-46
2021/11/10 00:55:24;;;;;;;10.70;9.60;;;2.90;99.90;;;;;;5088758;28;20181;-46
2021/11/10 00:57:51;;;;;;;10.50;9.02;;;3.40;99.90;;;;;;5084872;28;20477;-46
2021/11/10 01:00:18;;;;;;;11.65;8.65;;;3.60;99.90;;;;;;5089704;28;20672;-46
2021/11/10 01:02:44;;;;;;;12.20;10.10;;;3.20;99.90;;;;;;5083724;28;20181;-46
2021/11/10 01:05:11;;;;;;;13.32;9.30;;;3.50;99.90;;;;;;5069761;28;20192;-47
2021/11/10 01:07:37;;;;;;;11.65;9.10;;;3.30;99.90;;;;;;5091066;28;20180;-47
2021/11/10 01:10:05;;;;;;;11.27;8.73;;;3.30;99.90;;;;;;5085893;28;20215;-47
2021/11/10 01:12:31;;;;;;;10.15;8.95;;;3.40;99.90;;;;;;5072872;28;20688;-47
2021/11/10 01:14:57;;;;;;;9.23;7.60;;;3.40;99.90;;;;;;5092871;28;20184;-46
2021/11/10 01:17:23;;;;;;;18.33;9.75;;;3.60;99.90;;;;;;5088048;28;20183;-47
2021/11/10 01:19:49;;;;;;;11.90;9.18;;;3.50;99.90;;;;;;5081146;28;20584;-47
2021/11/10 01:22:15;;;;;;;10.13;8.80;;;3.50;99.90;;;;;;5091890;28;20576;-47
2021/11/10 01:24:42;;;;;;;9.77;8.77;;;3.40;99.90;;;;;;5082765;28;20193;-47
2021/11/10 01:27:08;;;;;;;9.30;8.38;;;3.40;99.90;;;;;;5080247;28;20188;-46
2021/11/10 01:29:35;;;;;;;12.60;8.15;;;3.50;99.90;;;;;;5091556;28;20496;-47
2021/11/10 01:32:01;;;;;;;10.45;8.82;;;3.40;99.90;;;;;;5048879;28;20192;-46
2021/11/10 01:34:27;;;;;;;12.13;8.80;;;3.50;99.90;;;;;;5083852;28;20184;-47
2021/11/10 01:36:52;;;;;;;13.02;8.35;;;3.40;99.90;;;;;;5085801;28;20827;-47
2021/11/10 01:39:18;;;;;;;10.23;8.53;;;3.40;99.90;;;;;;5087437;28;20185;-47
2021/11/10 01:41:47;;;;;;;11.80;9.70;;;2.80;99.90;;;;;;5066028;28;20680;-47
2021/11/10 01:44:15;;;;;;;11.90;9.55;;;3.20;99.90;;;;;;5082023;28;20472;-47
2021/11/10 01:46:41;;;;;;;13.00;10.25;;;3.50;99.90;;;;;;5091582;28;20191;-47
2021/11/10 01:49:07;;;;;;;10.30;8.93;;;3.30;99.90;;;;;;5079041;28;20208;-47
2021/11/10 01:51:33;;;;;;;11.70;8.18;;;3.30;99.90;;;;;;5089383;28;20657;-47
2021/11/10 01:53:59;;;;;;;12.70;8.67;;;3.50;99.90;;;;;;5080944;28;20199;-47
2021/11/10 01:56:24;;;;;;;12.93;9.30;;;3.30;99.90;;;;;;5085631;28;20438;-47
2021/11/10 01:58:50;;;;;;;15.13;9.53;;;3.20;99.90;;;;;;5087258;28;20279;-47
2021/11/10 02:01:16;;;;;;;13.70;8.53;;;3.20;99.90;;;;;;5080288;28;20616;-47
2021/11/10 02:03:42;;;;;;;10.20;9.10;;;3.20;99.90;;;;;;5079839;28;20281;-47
2021/11/10 02:06:07;;;;;;;11.87;8.90;;;3.10;99.90;;;;;;5091457;28;20184;-47
2021/11/10 02:08:33;;;;;;;13.50;9.40;;;2.60;99.90;;;;;;5081162;28;20470;-47
2021/11/10 02:10:59;;;;;;;12.30;9.43;;;3.20;99.90;;;;;;5091444;28;20200;-47
2021/11/10 02:13:24;;;;;;;13.13;9.00;;;3.30;99.90;;;;;;5085879;28;20987;-47
2021/11/10 02:15:50;;;;;;;10.47;8.53;;;3.10;99.90;;;;;;5077478;28;20211;-47
2021/11/10 02:18:16;;;;;;;11.57;8.37;;;3.10;99.90;;;;;;5087185;28;20192;-47
2021/11/10 02:20:41;;;;;;;11.47;8.87;;;3.30;99.90;;;;;;5087916;28;20577;-48
2021/11/10 02:23:08;;;;;;;11.10;9.10;;;3.40;99.90;;;;;;5088262;28;20231;-46
2021/11/10 02:25:34;;;;;;;14.50;9.30;;;2.80;99.90;;;;;;5085922;28;20615;-47
2021/11/10 02:27:59;;;;;;;14.20;9.37;;;3.30;99.90;;;;;;5086648;28;20267;-47
2021/11/10 02:30:26;;;;;;;10.27;9.03;;;3.40;99.90;;;;;;5085574;28;20988;-47
2021/11/10 02:32:54;;;;;;;11.68;8.68;;;3.20;99.90;;;;;;5078143;28;20562;-47
2021/11/10 02:35:23;;;;;;;11.77;9.20;;;3.10;99.90;;;;;;5082942;28;20266;-48
2021/11/10 02:37:59;;;;;;;13.18;10.07;;;3.10;99.90;;;;;;5077074;28;20189;-46
2021/11/10 02:40:26;;;;;;;11.77;8.95;;;3.10;99.90;;;;;;5079627;28;20212;-47
2021/11/10 02:42:54;;;;;;;17.65;9.57;;;3.30;99.90;;;;;;5075257;28;20193;-47
2021/11/10 02:45:22;;;;;;;11.63;8.75;;;3.20;99.90;;;;;;5073213;28;20646;-47
2021/11/10 02:47:48;;;;;;;14.02;9.57;;;3.00;99.90;;;;;;5088114;28;20684;-47
2021/11/10 02:50:14;;;;;;;12.47;9.50;;;3.30;99.90;;;;;;5084925;28;20307;-47
2021/11/10 02:52:40;;;;;;;12.23;9.90;;;2.90;99.90;;;;;;5084719;28;20434;-47
2021/11/10 02:55:07;;;;;;;15.10;10.83;;;3.00;99.90;;;;;;5085589;28;20203;-47
2021/11/10 02:57:32;;;;;;;12.68;9.85;;;2.90;99.90;;;;;;5078641;28;20263;-47
2021/11/10 02:59:58;;;;;;;12.67;10.93;;;3.00;99.90;;;;;;5085216;28;20303;-47
2021/11/10 03:02:29;;;;;;;14.63;10.70;;;3.10;99.90;;;;;;5080233;28;20189;-47
2021/11/10 03:04:56;;;;;;;13.85;10.52;;;2.90;99.90;;;;;;5082421;28;20313;-47
2021/11/10 03:07:23;;;;;;;12.80;9.25;;;3.00;99.90;;;;;;5090296;28;20216;-47
2021/11/10 03:09:49;;;;;;;14.35;10.70;;;2.90;99.90;;;;;;5088336;28;20607;-47
2021/11/10 03:12:16;;;;;;;13.60;10.50;;;2.70;99.90;;;;;;5081163;28;20554;-47
2021/11/10 03:14:44;;;;;;;15.02;10.70;;;2.90;99.90;;;;;;5090038;28;20546;-47
2021/11/10 03:17:14;;;;;;;12.35;9.70;;;2.80;99.90;;;;;;5089015;28;20263;-47
2021/11/10 03:19:41;;;;;;;13.40;10.00;;;3.10;99.90;;;;;;5082654;28;20234;-47
2021/11/10 03:22:09;;;;;;;13.70;10.57;;;3.20;99.90;;;;;;5085289;28;20189;-47
2021/11/10 03:24:35;;;;;;;17.33;10.77;;;2.90;99.90;;;;;;5078269;28;20203;-47
2021/11/10 03:27:01;;;;;;;13.13;11.23;;;2.90;99.90;;;;;;5076049;28;20200;-47
2021/11/10 03:29:28;;;;;;;14.77;11.23;;;3.10;99.90;;;;;;5085702;28;20436;-47
2021/11/10 03:31:54;;;;;;;14.30;11.18;;;2.90;99.90;;;;;;5085719;28;20192;-47
2021/11/10 03:34:23;;;;;;;14.48;11.50;;;3.20;99.90;;;;;;5083636;28;20176;-48
2021/11/10 03:36:49;;;;;;;16.65;10.25;;;3.00;99.90;;;;;;5089577;28;20257;-47
2021/11/10 03:39:16;;;;;;;13.48;11.35;;;2.40;99.90;;;;;;5081756;28;20195;-47
2021/11/10 03:41:42;;;;;;;14.05;11.23;;;3.00;99.90;;;;;;5081964;28;20234;-47
2021/11/10 03:44:09;;;;;;;14.02;12.35;;;3.00;99.90;;;;;;5086580;28;20191;-47
2021/11/10 03:46:37;;;;;;;16.45;11.50;;;3.40;99.90;;;;;;5083390;28;20181;-47
2021/11/10 03:49:03;;;;;;;17.33;13.02;;;2.50;99.90;;;;;;5083959;28;20577;-47
2021/11/10 03:51:29;;;;;;;14.80;12.07;;;3.20;99.90;;;;;;5080632;28;20208;-48
2021/11/10 03:53:55;;;;;;;16.90;11.67;;;3.40;99.90;;;;;;5083640;28;20181;-48
2021/11/10 03:56:21;;;;;;;17.80;12.85;;;3.50;99.90;;;;;;5085491;28;20584;-47
2021/11/10 03:58:47;;;;;;;18.13;12.77;;;3.60;99.90;;;;;;5087802;28;20268;-47
2021/11/10 04:01:15;;;;;;;18.10;11.83;;;3.80;99.90;;;;;;5091225;28;20685;-47
2021/11/10 04:03:41;;;;;;;17.45;12.18;;;3.70;99.90;;;;;;5088393;28;20188;-47
2021/11/10 04:06:08;;;;;;;17.67;13.03;;;3.50;99.90;;;;;;5092326;28;20558;-47
2021/11/10 04:08:33;;;;;;;15.63;11.48;;;3.00;99.90;;;;;;5088975;28;20799;-47
2021/11/10 04:11:02;;;;;;;13.40;10.97;;;3.60;99.90;;;;;;5093569;28;20200;-47
2021/11/10 04:13:29;;;;;;;15.88;12.25;;;3.70;99.90;;;;;;5081516;28;20847;-47
2021/11/10 04:15:55;;;;;;;14.50;11.38;;;3.60;99.90;;;;;;5084993;28;20184;-47
2021/11/10 04:18:20;;;;;;;16.00;12.70;;;3.50;99.90;;;;;;5089989;28;20184;-47
2021/11/10 04:20:46;;;;;;;14.53;11.53;;;3.70;99.90;;;;;;5081916;28;20215;-47
2021/11/10 04:23:13;;;;;;;19.50;11.97;;;3.70;99.90;;;;;;5086765;28;20203;-47
2021/11/10 04:25:39;;;;;;;15.43;11.57;;;3.80;99.90;;;;;;5083154;28;20438;-48
2021/11/10 04:28:05;;;;;;;17.92;12.02;;;3.60;99.90;;;;;;5088749;28;20190;-47
2021/11/10 04:30:31;;;;;;;15.68;11.65;;;3.50;99.90;;;;;;5086086;28;20197;-47
2021/11/10 04:32:57;;;;;;;15.90;12.45;;;3.10;99.90;;;;;;5087163;28;20196;-47
2021/11/10 04:35:23;;;;;;;14.60;11.73;;;3.50;99.90;;;;;;5093387;28;20172;-47
2021/11/10 04:37:48;;;;;;;15.67;12.93;;;3.50;99.90;;;;;;5090818;28;20573;-47
2021/11/10 04:40:14;;;;;;;16.13;13.00;;;3.50;99.90;;;;;;5083546;28;20456;-47
2021/11/10 04:42:40;;;;;;;15.43;12.70;;;3.60;99.90;;;;;;5082075;28;20874;-47
2021/11/10 04:45:10;;;;;;;17.05;11.82;;;3.60;99.90;;;;;;5083689;28;20188;-47
2021/11/10 04:47:37;;;;;;;17.75;12.77;;;3.70;99.90;;;;;;5084384;28;20265;-47
2021/11/10 04:50:05;;;;;;;14.23;10.93;;;3.40;99.90;;;;;;5085349;28;20294;-48
2021/11/10 04:52:32;;;;;;;15.55;12.80;;;3.60;99.90;;;;;;5072205;28;20573;-47
2021/11/10 04:54:57;;;;;;;12.82;10.27;;;3.40;99.90;;;;;;5086382;28;20235;-48
2021/11/10 04:57:23;;;;;;;20.43;12.90;;;4.00;99.90;;;;;;5089867;28;20180;-47
2021/11/10 04:59:49;;;;;;;13.63;11.93;;;3.60;99.90;;;;;;5081435;28;20231;-47
2021/11/10 05:02:25;;;;;;;20.30;12.27;;;3.40;99.90;;;;;;5077527;28;20240;-47
2021/11/10 05:04:52;;;;;;;16.55;11.52;;;3.40;99.90;;;;;;5087259;28;20183;-47
2021/11/10 05:07:18;;;;;;;16.10;12.40;;;3.20;99.90;;;;;;5090864;28;20241;-47
2021/11/10 05:09:45;;;;;;;16.70;12.52;;;3.30;99.90;;;;;;5090867;28;20597;-47
2021/11/10 05:12:10;;;;;;;16.80;12.90;;;2.90;99.90;;;;;;5081639;28;20217;-47
2021/11/10 05:14:36;;;;;;;14.00;11.37;;;3.40;99.90;;;;;;5088074;28;20208;-47
2021/11/10 05:17:03;;;;;;;17.30;12.43;;;3.30;99.90;;;;;;5084777;28;20629;-47
2021/11/10 05:19:28;;;;;;;16.98;11.68;;;3.50;99.90;;;;;;5086499;28;20204;-47
2021/11/10 05:21:54;;;;;;;17.90;11.77;;;3.30;99.90;;;;;;5084455;28;20187;-47
2021/11/10 05:24:22;;;;;;;14.77;11.10;;;3.50;99.90;;;;;;5091443;28;20272;-47
2021/11/10 05:26:48;;;;;;;13.73;11.00;;;3.20;99.90;;;;;;5087918;28;20241;-47
2021/11/10 05:29:14;;;;;;;17.15;12.35;;;3.00;99.90;;;;;;5082846;28;20611;-47
2021/11/10 05:31:40;;;;;;;19.53;14.37;;;2.90;99.90;;;;;;5082818;28;20185;-47
2021/11/10 05:34:05;;;;;;;19.30;13.20;;;3.10;99.90;;;;;;5084997;28;20180;-47
2021/11/10 05:36:31;;;;;;;18.93;12.20;;;3.10;99.90;;;;;;5082480;28;20173;-47
2021/11/10 05:38:57;;;;;;;18.23;11.93;;;3.10;99.90;;;;;;5082540;28;20684;-47
2021/11/10 05:41:23;;;;;;;15.33;11.77;;;3.00;99.90;;;;;;5082562;28;20560;-47
2021/11/10 05:43:48;;;;;;;12.77;11.30;;;3.30;99.90;;;;;;5082174;28;20199;-47
2021/11/10 05:46:14;;;;;;;16.63;11.83;;;3.20;99.90;;;;;;5083645;28;20231;-47
2021/11/10 05:48:40;;;;;;;14.17;11.10;;;3.40;99.90;;;;;;5080149;28;20918;-47
2021/11/10 05:51:06;;;;;;;16.97;11.50;;;3.10;99.90;;;;;;5087612;28;20627;-47
2021/11/10 05:53:33;;;;;;;17.70;12.85;;;3.30;99.90;;;;;;5081101;28;20185;-47
2021/11/10 05:56:00;;;;;;;15.82;11.63;;;3.20;99.90;;;;;;5078752;28;20650;-48
2021/11/10 05:58:28;;;;;;;15.02;11.23;;;2.60;99.90;;;;;;5080714;28;20491;-47
2021/11/10 06:00:59;;;;;;;13.57;11.80;;;3.10;99.90;;;;;;5083894;28;20298;-47
2021/11/10 06:03:25;;;;;;;17.33;11.40;;;3.20;99.90;;;;;;5079328;28;20514;-47
2021/11/10 06:05:52;;;;;;;17.50;12.33;;;3.30;99.90;;;;;;5080458;28;20206;-47
2021/11/10 06:08:18;;;;;;;16.73;11.50;;;3.40;99.90;;;;;;5085093;28;20184;-48
2021/11/10 06:10:44;;;;;;;15.30;12.35;;;3.30;99.90;;;;;;5078522;28;20197;-48
2021/11/10 06:13:10;;;;;;;15.40;11.90;;;3.20;99.90;;;;;;5085469;28;20189;-48
2021/11/10 06:15:35;;;;;;;15.50;11.37;;;3.20;99.90;;;;;;5089790;28;20443;-48
2021/11/10 06:18:02;;;;;;;21.03;13.07;;;3.30;99.90;;;;;;5079801;28;20989;-49
2021/11/10 06:20:28;;;;;;;18.15;13.50;;;3.50;99.90;;;;;;5086217;28;20200;-49
2021/11/10 06:22:53;;;;;;;15.85;12.02;;;3.10;99.90;;;;;;5078170;28;20189;-48
2021/11/10 06:25:20;;;;;;;16.53;12.60;;;3.30;99.90;;;;;;5079789;28;20192;-49
2021/11/10 06:27:46;;;;;;;19.20;12.70;;;3.10;99.90;;;;;;5085738;28;20219;-48
2021/11/10 06:30:12;;;;;;;16.27;13.02;;;3.00;99.90;;;;;;5094935;28;20219;-49
2021/11/10 06:32:38;;;;;;;19.02;12.00;;;3.10;99.90;;;;;;5059730;28;20583;-49
2021/11/10 06:35:06;;;;;;;17.02;12.95;;;3.20;99.90;;;;;;5083534;28;20184;-50
2021/11/10 06:37:32;;;;;;;19.70;13.40;;;3.00;99.90;;;;;;5079739;28;20650;-49
2021/11/10 06:39:58;;;;;;;19.27;14.02;;;2.80;99.90;;;;;;5088387;28;20689;-49
2021/11/10 06:42:25;;;;;;;19.27;14.50;;;2.40;99.90;;;;;;5082587;28;20184;-48
2021/11/10 06:44:51;;;;;;;20.75;15.73;;;2.80;99.90;;;;;;5065914;28;20196;-48
2021/11/10 06:47:17;;;;;;;17.95;13.48;;;3.00;99.90;;;;;;5079788;28;20185;-50
2021/11/10 06:49:43;;;;;;;17.77;13.02;;;3.40;99.90;;;;;;5078790;28;20634;-50
2021/11/10 06:52:09;;;;;;;17.23;14.27;;;2.90;99.90;;;;;;5083724;28;20224;-49
2021/11/10 06:54:36;;;;;;;14.13;12.63;;;3.20;99.90;;;;;;5077200;28;20878;-49
2021/11/10 06:57:01;;;;;;;26.17;18.37;;;3.30;99.90;;;;;;5085029;28;20275;-49
2021/11/10 06:59:27;;;;;;;20.60;14.70;;;3.30;99.90;;;;;;5079002;28;20301;-49
2021/11/10 07:01:52;;;;;;;19.17;13.83;;;4.30;99.90;;;;;;5077497;28;20199;-49
2021/11/10 07:04:18;;;;;;;15.80;12.33;;;4.00;99.90;;;;;;5071178;28;20230;-50
2021/11/10 07:06:44;;;;;;;18.23;13.00;;;4.20;99.90;;;;;;5077750;28;20230;-50
2021/11/10 07:09:09;;;;;;;17.70;12.80;;;4.20;99.90;;;;;;5078682;28;20214;-49
2021/11/10 07:11:36;;;;;;;17.70;12.60;;;3.50;99.90;;;;;;5079279;28;20224;-50
2021/11/10 07:14:06;;;;;;;17.92;12.07;;;4.00;99.90;;;;;;5077616;28;20274;-50
2021/11/10 07:16:33;;;;;;;19.55;14.00;;;4.00;99.90;;;;;;5076152;28;20914;-49
2021/11/10 07:18:59;;;;;;;19.02;14.57;;;4.10;99.90;;;;;;5078472;28;20272;-49
2021/11/10 07:21:25;;;;;;;14.52;12.25;;;4.10;99.90;;;;;;5083102;28;20247;-49
2021/11/10 07:23:52;;;;;;;16.65;12.95;;;4.20;99.90;;;;;;5086739;28;20676;-49
2021/11/10 07:26:18;;;;;;;18.50;13.23;;;4.30;99.90;;;;;;5080219;28;20188;-49
2021/11/10 07:28:44;;;;;;;16.05;12.23;;;4.30;99.90;;;;;;5070269;28;20240;-49
2021/11/10 07:31:10;;;;;;;16.58;13.10;;;4.30;99.90;;;;;;5085683;28;20235;-50
2021/11/10 07:33:36;;;;;;;20.40;13.60;;;4.30;99.90;;;;;;5086097;28;20181;-49
2021/11/10 07:36:03;;;;;;;15.35;12.80;;;4.40;99.90;;;;;;5075685;28;20196;-50
2021/11/10 07:38:29;;;;;;;14.90;12.80;;;4.50;99.90;;;;;;5090239;28;20181;-51
2021/11/10 07:40:56;;;;;;;20.13;13.67;;;4.70;99.90;;;;;;5081972;28;20221;-50
2021/11/10 07:43:26;;;;;;;17.42;12.07;;;4.60;99.90;;;;;;5081897;28;20447;-47
2021/11/10 07:45:55;;;;;;;19.20;12.98;;;4.60;99.90;;;;;;5083087;28;20596;-49
2021/11/10 07:48:22;;;;;;;18.95;13.55;;;4.70;99.90;;;;;;5084264;28;20200;-49
2021/11/10 07:50:48;;;;;;;24.48;13.15;;;4.70;99.90;;;;;;5086717;28;20664;-51
2021/11/10 07:53:13;;;;;;;16.40;14.00;;;5.00;99.90;;;;;;5093063;28;20180;-49
2021/11/10 07:55:40;;;;;;;18.73;13.13;;;4.80;99.90;;;;;;5085798;28;20263;-48
2021/11/10 07:58:05;;;;;;;16.60;12.45;;;4.90;99.90;;;;;;5097242;28;20188;-49
2021/11/10 08:00:31;;;;;;;15.40;12.20;;;5.10;99.90;;;;;;5082045;28;20213;-50
2021/11/10 08:02:57;;;;;;;20.42;13.10;;;4.90;99.90;;;;;;5082121;28;20455;-50
2021/11/10 08:05:23;;;;;;;17.83;12.13;;;5.00;99.90;;;;;;5078854;28;20444;-50
2021/11/10 08:07:49;;;;;;;17.37;13.60;;;5.20;99.90;;;;;;5076351;28;20200;-50
2021/11/10 08:10:15;;;;;;;15.03;13.47;;;5.40;99.90;;;;;;5072944;28;20477;-50
2021/11/10 08:12:42;;;;;;;17.63;13.98;;;5.40;99.90;;;;;;5080675;28;20628;-50
2021/11/10 08:15:11;;;;;;;15.90;12.10;;;5.80;99.90;;;;;;5086658;28;20189;-50
2021/11/10 08:17:39;;;;;;;17.10;13.02;;;5.50;99.90;;;;;;5081212;28;20646;-50
2021/11/10 08:20:11;;;;;;;15.77;13.63;;;5.70;99.90;;;;;;5080030;28;20280;-50
2021/11/10 08:22:37;;;;;;;18.85;14.95;;;5.60;99.90;;;;;;5078527;28;20191;-50
2021/11/10 08:25:04;;;;;;;16.90;13.60;;;5.90;99.90;;;;;;5084815;28;20192;-50
2021/11/10 08:27:30;;;;;;;17.40;13.13;;;6.20;99.90;;;;;;5062677;28;20871;-51
2021/11/10 08:29:56;;;;;;;18.30;13.63;;;6.00;99.90;;;;;;5081738;28;20308;-51
2021/11/10 08:32:21;;;;;;;17.27;13.50;;;6.10;99.90;;;;;;5075139;28;20179;-49
2021/11/10 08:34:47;;;;;;;17.50;13.70;;;6.10;99.90;;;;;;5073591;28;20181;-49
2021/11/10 08:37:13;;;;;;;15.10;12.17;;;6.40;99.90;;;;;;5084413;28;20608;-49
2021/11/10 08:39:39;;;;;;;15.10;13.50;;;6.20;99.90;;;;;;5089665;28;20546;-49
2021/11/10 08:42:08;;;;;;;20.07;15.23;;;6.30;99.90;;;;;;5087216;28;20476;-50
2021/11/10 08:44:36;;;;;;;19.48;14.90;;;6.50;99.90;;;;;;5100835;28;20221;-50
2021/11/10 08:47:04;;;;;;;16.33;14.07;;;6.60;99.90;;;;;;5085930;28;20238;-49
2021/11/10 08:49:31;;;;;;;19.77;14.30;;;6.70;99.90;;;;;;5084534;28;20690;-49
2021/11/10 08:51:57;;;;;;;17.05;13.70;;;6.70;99.90;;;;;;5080504;28;20180;-52
2021/11/10 08:54:25;;;;;;;21.13;13.57;;;6.60;99.90;;;;;;5086815;28;20184;-51
2021/11/10 08:56:55;;;;;;;17.63;13.70;;;7.20;99.90;;;;;;5075216;28;20658;-51
2021/11/10 08:59:21;;;;;;;19.42;13.88;;;7.40;99.90;;;;;;5093633;28;20477;-47
2021/11/10 09:01:49;;;;;;;19.90;12.87;;;7.10;99.90;;;;;;5085324;28;20576;-47
2021/11/10 09:04:16;;;;;;;16.65;13.65;;;7.10;99.90;;;;;;5080282;28;20444;-49
2021/11/10 09:06:42;;;;;;;18.27;13.98;;;7.40;99.90;;;;;;5080166;28;20221;-49
2021/11/10 09:09:08;;;;;;;17.83;14.73;;;7.10;99.90;;;;;;5085355;28;20213;-49
2021/11/10 09:11:33;;;;;;;15.83;13.70;;;6.80;99.90;;;;;;5075321;28;20274;-50
2021/11/10 09:13:59;;;;;;;21.53;13.70;;;7.20;99.90;;;;;;5089157;28;20703;-49
2021/11/10 09:16:24;;;;;;;18.70;13.50;;;7.30;99.90;;;;;;5079334;28;20188;-49
2021/11/10 09:18:50;;;;;;;18.13;14.00;;;7.60;99.90;;;;;;5076607;28;20184;-50
2021/11/10 09:21:16;;;;;;;18.13;14.10;;;7.30;99.90;;;;;;5078564;28;20208;-49
2021/11/10 09:23:41;;;;;;;20.27;14.30;;;7.60;99.90;;;;;;5081553;28;20407;-51
2021/11/10 09:26:07;;;;;;;19.93;14.23;;;7.40;99.90;;;;;;5090609;28;20233;-48
2021/11/10 09:28:33;;;;;;;26.43;14.73;;;7.80;99.90;;;;;;5091522;28;20236;-49
2021/11/10 09:30:59;;;;;;;15.90;14.02;;;7.70;99.90;;;;;;5096072;28;20287;-50
2021/11/10 09:33:25;;;;;;;19.43;13.93;;;7.10;99.90;;;;;;5082150;28;20212;-50
2021/11/10 09:35:52;;;;;;;17.48;14.13;;;7.70;99.90;;;;;;5102246;28;20528;-49
2021/11/10 09:38:19;;;;;;;19.30;14.70;;;7.60;99.90;;;;;;5101765;28;20176;-50
2021/11/10 09:40:45;;;;;;;20.42;15.20;;;7.90;99.90;;;;;;5072807;28;20219;-50
2021/11/10 09:43:11;;;;;;;18.27;15.20;;;8.10;99.90;;;;;;5084615;28;20177;-50
2021/11/10 09:45:37;;;;;;;15.20;12.80;;;8.10;99.90;;;;;;5100873;28;20278;-49
2021/11/10 09:48:05;;;;;;;20.65;14.82;;;7.60;99.90;;;;;;5082444;28;20496;-48
2021/11/10 09:50:31;;;;;;;16.15;14.45;;;8.40;99.90;;;;;;5091447;28;20580;-49
2021/11/10 09:52:59;;;;;;;21.35;14.63;;;8.50;99.90;;;;;;5083668;28;20556;-49
2021/11/10 09:55:29;;;;;;;18.80;15.43;;;8.70;99.90;;;;;;5089241;28;20184;-49
2021/11/10 09:57:56;;;;;;;17.98;14.60;;;8.80;99.90;;;;;;5080115;28;20184;-48
2021/11/10 10:00:29;;;;;;;20.08;15.63;;;8.90;99.90;;;;;;5091336;28;20216;-48
2021/11/10 10:02:55;;;;;;;18.55;14.27;;;8.80;99.90;;;;;;5082603;28;20188;-48
2021/11/10 10:05:26;;;;;;;18.70;14.47;;;9.30;99.90;;;;;;5088461;28;20197;-49
2021/11/10 10:07:53;;;;;;;18.50;15.10;;;9.10;99.90;;;;;;5084441;28;20525;-51
2021/11/10 10:10:26;;;;;;;17.30;14.32;;;9.10;99.90;;;;;;5079956;28;20223;-50
2021/11/10 10:12:53;;;;;;;19.73;15.05;;;8.90;99.90;;;;;;5087033;28;20657;-50
2021/11/10 10:15:21;;;;;;;20.90;16.27;;;8.80;99.90;;;;;;5080714;28;20188;-51
2021/11/10 10:17:48;;;;;;;20.92;15.18;;;8.70;99.90;;;;;;5086993;28;20200;-51
2021/11/10 10:20:31;;;;;;;20.90;12.75;;;8.80;99.90;;;;;;5081272;28;20196;-48
2021/11/10 10:23:01;;;;;;;22.25;14.98;;;8.80;99.90;;;;;;5080900;28;20172;-49
2021/11/10 10:25:40;;;;;;;23.33;15.60;;;8.80;99.90;;;;;;5083340;28;20188;-51
2021/11/10 10:28:09;;;;;;;20.48;15.10;;;8.70;99.90;;;;;;5076413;28;20189;-51
2021/11/10 10:30:47;;;;;;;18.75;13.82;;;9.00;99.90;;;;;;5086369;28;20354;-51
2021/11/10 10:33:35;;;;;;;18.95;13.93;;;9.00;99.90;;;;;;5088514;28;20259;-51
2021/11/10 10:36:07;;;;;;;18.33;14.60;;;9.10;99.90;;;;;;5079895;28;20222;-49
2021/11/10 10:39:00;;;;;;;16.08;13.70;;;9.20;99.90;;;;;;5083221;28;20713;-49
2021/11/10 10:41:34;;;;;;;16.60;14.30;;;9.30;99.90;;;;;;5077470;28;20238;-49
2021/11/10 10:44:05;;;;;;;16.63;15.02;;;9.60;99.90;;;;;;5079960;28;20180;-49
2021/11/10 10:46:33;;;;;;;19.45;14.57;;;9.40;99.80;;;;;;5092935;28;20667;-49
2021/11/10 10:49:13;;;;;;;19.17;14.13;;;9.20;99.40;;;;;;5085868;28;20234;-48
2021/11/10 10:51:39;;;;;;;18.67;14.65;;;8.80;99.60;;;;;;5086027;28;20263;-49
2021/11/10 10:54:09;;;;;;;19.45;14.60;;;9.50;99.90;;;;;;5079022;28;20224;-51
2021/11/10 10:56:37;;;;;;;18.15;14.80;;;9.40;99.90;;;;;;5077981;28;20176;-52
2021/11/10 10:59:06;;;;;;;20.30;14.95;;;9.30;99.80;;;;;;5087294;28;20188;-52
2021/11/10 11:01:31;;;;;;;20.85;15.15;;;9.40;99.90;;;;;;5075000;28;20196;-51
2021/11/10 11:04:03;;;;;;;18.20;14.57;;;9.10;99.90;;;;;;5075049;28;20216;-51
2021/11/10 11:06:35;;;;;;;18.42;15.27;;;9.10;99.90;;;;;;5078171;28;20216;-52
2021/11/10 11:09:10;;;;;;;17.52;15.30;;;9.40;99.80;;;;;;5087460;28;20204;-51
2021/11/10 11:11:40;;;;;;;21.73;15.40;;;8.90;99.80;;;;;;5079651;28;20236;-51
2021/11/10 11:14:16;;;;;;;20.83;15.27;;;8.90;99.90;;;;;;5076626;28;20548;-52
2021/11/10 11:16:43;;;;;;;20.92;15.40;;;8.80;99.90;;;;;;5066937;28;20188;-52
2021/11/10 11:19:17;;;;;;;21.08;14.85;;;9.60;99.90;;;;;;5081614;28;20215;-52
2021/11/10 11:21:51;;;;;;;22.48;16.58;;;10.00;98.80;;;;;;5083927;28;20176;-52
2021/11/10 11:24:35;;;;;;;23.10;16.95;;;9.80;98.50;;;;;;5076565;28;20193;-52
2021/11/10 11:27:15;;;;;;;19.83;16.25;;;9.80;98.90;;;;;;5084969;28;20246;-50
2021/11/10 11:29:51;;;;;;;17.30;15.35;;;10.00;98.40;;;;;;5073913;28;20219;-51
2021/11/10 11:32:29;;;;;;;21.50;15.60;;;9.70;98.60;;;;;;5073051;28;20192;-51
2021/11/10 11:35:08;;;;;;;19.75;14.40;;;9.80;98.40;;;;;;5079972;28;20184;-51
2021/11/10 11:37:34;;;;;;;23.75;15.70;;;10.00;98.30;;;;;;5076153;28;20613;-51
2021/11/10 11:40:07;;;;;;;20.03;16.03;;;9.90;98.70;;;;;;5084663;28;20235;-51
2021/11/10 11:42:33;;;;;;;19.95;15.77;;;9.80;98.80;;;;;;5071472;28;20185;-51
2021/11/10 11:44:59;;;;;;;22.13;15.85;;;9.90;98.80;;;;;;5080432;28;20196;-50
2021/11/10 11:47:26;;;;;;;18.35;16.08;;;10.10;98.30;;;;;;5066056;28;20542;-51
2021/11/10 11:49:52;;;;;;;20.15;15.27;;;9.90;98.90;;;;;;5080836;28;20273;-51
2021/11/10 11:52:22;;;;;;;31.75;16.13;;;9.80;99.20;;;;;;5081615;28;20180;-50
2021/11/10 11:54:51;;;;;;;19.23;15.57;;;10.10;98.40;;;;;;5074849;28;20586;-52
2021/11/10 11:57:22;;;;;;;19.35;15.55;;;10.10;98.20;;;;;;5077818;28;20616;-52
2021/11/10 11:59:53;;;;;;;17.58;15.75;;;9.60;98.30;;;;;;5076327;28;20216;-49
2021/11/10 12:02:29;;;;;;;18.10;15.48;;;10.10;97.80;;;;;;5081988;28;20200;-48
2021/11/10 12:04:56;;;;;;;17.15;15.20;;;10.40;98.10;;;;;;5089724;28;20229;-50
2021/11/10 12:07:42;;;;;;;19.75;16.05;;;10.20;97.60;;;;;;5064799;28;20220;-49
2021/11/10 12:10:24;;;;;;;21.13;15.75;;;10.10;97.80;;;;;;5075452;28;20221;-49
2021/11/10 12:12:52;;;;;;;18.00;15.13;;;10.20;98.40;;;;;;5079478;28;20180;-49
2021/11/10 12:15:17;;;;;;;20.13;15.45;;;9.90;98.70;;;;;;5093363;28;20242;-49
2021/11/10 12:18:05;;;;;;;18.47;15.30;;;10.20;98.30;;;;;;5088647;28;20177;-48
2021/11/10 12:20:39;;;;;;;20.20;15.63;;;10.10;98.20;;;;;;5082473;28;20480;-48
2021/11/10 12:23:05;;;;;;;21.40;16.05;;;9.90;98.80;;;;;;5078992;28;20242;-48
2021/11/10 12:25:31;;;;;;;19.10;16.35;;;10.10;98.40;;;;;;5086313;28;20191;-51
2021/11/10 12:27:57;;;;;;;19.55;14.55;;;10.20;98.40;;;;;;5082486;28;20237;-49
2021/11/10 12:30:24;;;;;;;19.27;16.30;;;9.90;99.30;;;;;;5088761;28;20212;-50
2021/11/10 12:32:55;;;;;;;18.95;16.70;;;10.20;98.80;;;;;;5080192;28;20471;-49
2021/11/10 12:35:30;;;;;;;20.52;17.00;;;10.20;98.50;;;;;;5085458;28;20543;-50
2021/11/10 12:37:57;;;;;;;22.27;15.90;;;10.10;98.40;;;;;;5085691;28;20555;-50
2021/11/10 12:40:30;;;;;;;20.58;15.20;;;10.00;98.40;;;;;;5081107;28;20610;-51